Terminal Aerodrome Forecast
Issued by NWS Central Illinois

Home | Current Version | Previous Version | Text Only | Print | Product List | Glossary On
Versions: 1 2 3 4 5 6 7 8 9 10 11 12 13 14 15
700
FTUS43 KILX 120527
TAFPIA
TAF
KPIA 120527Z 1206/1306 22004KT 6SM -SN OVC040
     FM121100 28007KT P6SM OVC025
     FM121600 31012G18KT P6SM BKN025
     FM121900 32014G23KT P6SM SCT025=

USA.gov is the U.S. government's official web portal to all federal, state and local government web resources and services.